Time;durP1;ratioP1;P1;durP2;ratioP2;P2;SDS_P1;SDS_P2;PMS_P1;PMS_P2;Temp;Humidity;BMP_temperature;BMP_pressure;BME280_temperature;BME280_humidity;BME280_pressure;Samples;Min_cycle;Max_cycle;Signal;HPM_P1;HPM_P2
2022/07/04 00:00:26;;;;;;;1.63;1.23;;;24.40;79.00;;;;;;5093671;28;20486;-63
2022/07/04 00:02:57;;;;;;;1.50;1.33;;;24.10;80.50;;;;;;5124306;28;20458;-63
2022/07/04 00:05:28;;;;;;;1.23;1.13;;;23.90;80.90;;;;;;5122780;28;20446;-63
2022/07/04 00:08:01;;;;;;;1.13;0.97;;;23.90;78.90;;;;;;5123743;28;20949;-64
2022/07/04 00:10:32;;;;;;;1.10;1.00;;;23.70;80.80;;;;;;5123333;28;20438;-63
2022/07/04 00:13:03;;;;;;;1.37;1.10;;;23.60;81.50;;;;;;5123737;28;20477;-63
2022/07/04 00:15:34;;;;;;;2.27;1.53;;;23.60;81.30;;;;;;5123278;28;20454;-64
2022/07/04 00:18:05;;;;;;;1.60;1.37;;;23.70;82.70;;;;;;5123170;28;20589;-64
2022/07/04 00:20:36;;;;;;;1.93;1.60;;;23.70;82.30;;;;;;5107455;28;20799;-64
2022/07/04 00:23:08;;;;;;;1.37;1.20;;;23.80;82.20;;;;;;5123345;27;20437;-64
2022/07/04 00:25:39;;;;;;;2.03;1.70;;;24.20;81.60;;;;;;5091763;28;20438;-63
2022/07/04 00:28:10;;;;;;;1.60;1.50;;;24.40;81.90;;;;;;5123157;28;20443;-64
2022/07/04 00:30:41;;;;;;;1.50;1.40;;;24.60;81.90;;;;;;5108204;28;20517;-64
2022/07/04 00:33:14;;;;;;;1.30;1.20;;;24.60;80.30;;;;;;5119983;28;20479;-63
2022/07/04 00:35:44;;;;;;;1.90;1.23;;;24.50;79.30;;;;;;5117942;28;20532;-63
2022/07/04 00:38:17;;;;;;;1.60;1.30;;;24.30;77.90;;;;;;5122300;28;20481;-64
2022/07/04 00:40:49;;;;;;;1.23;1.13;;;24.10;80.10;;;;;;5123276;28;20811;-64
2022/07/04 00:43:24;;;;;;;1.83;1.57;;;24.00;81.70;;;;;;5122859;28;20453;-64
2022/07/04 00:45:55;;;;;;;1.60;1.47;;;23.90;82.60;;;;;;5122669;28;20449;-63
2022/07/04 00:48:26;;;;;;;1.37;1.27;;;23.80;84.30;;;;;;5122196;28;20457;-64
2022/07/04 00:50:57;;;;;;;1.67;1.57;;;23.70;81.60;;;;;;5121712;28;20463;-64
2022/07/04 00:53:30;;;;;;;1.50;1.40;;;23.50;85.00;;;;;;5122839;28;20466;-64
2022/07/04 00:56:02;;;;;;;1.90;1.57;;;23.60;85.80;;;;;;5123118;28;20446;-63
2022/07/04 00:58:33;;;;;;;1.47;1.37;;;23.70;83.00;;;;;;5122512;28;20485;-64
2022/07/04 01:01:04;;;;;;;1.83;1.43;;;23.70;83.90;;;;;;5122770;28;20459;-63
2022/07/04 01:03:35;;;;;;;2.27;1.37;;;23.70;83.90;;;;;;5122315;28;20534;-63
2022/07/04 01:06:08;;;;;;;1.53;1.43;;;23.50;84.80;;;;;;5121785;28;20875;-63
2022/07/04 01:08:42;;;;;;;2.57;1.50;;;23.40;85.50;;;;;;5122348;28;20469;-64
2022/07/04 01:11:13;;;;;;;2.10;1.70;;;23.40;86.00;;;;;;5122637;28;20443;-63
2022/07/04 01:13:45;;;;;;;1.57;1.47;;;23.40;84.70;;;;;;5122533;28;20459;-63
2022/07/04 01:16:16;;;;;;;1.60;1.50;;;23.40;83.40;;;;;;5121904;28;20462;-64
2022/07/04 01:18:46;;;;;;;1.57;1.40;;;23.30;84.90;;;;;;5122198;28;20452;-63
2022/07/04 01:21:19;;;;;;;1.77;1.50;;;23.20;84.80;;;;;;5111124;28;20566;-64
2022/07/04 01:23:50;;;;;;;1.60;1.50;;;23.00;86.60;;;;;;5115648;28;20513;-64
2022/07/04 01:26:22;;;;;;;1.90;1.63;;;23.00;87.60;;;;;;5122454;28;21284;-63
2022/07/04 01:28:53;;;;;;;1.57;1.00;;;23.10;87.60;;;;;;5116350;28;20575;-64
2022/07/04 01:31:23;;;;;;;1.73;1.40;;;23.00;87.90;;;;;;5122165;28;20445;-63
2022/07/04 01:33:54;;;;;;;1.53;1.37;;;22.90;86.50;;;;;;5122427;28;20454;-63
2022/07/04 01:36:27;;;;;;;1.47;1.37;;;22.80;88.10;;;;;;5121431;28;20445;-63
2022/07/04 01:38:58;;;;;;;1.97;1.40;;;22.60;87.50;;;;;;5121891;28;20481;-64
2022/07/04 01:41:36;;;;;;;1.57;1.47;;;22.60;89.10;;;;;;5122351;28;20441;-63
2022/07/04 01:44:06;;;;;;;1.47;1.20;;;22.50;89.00;;;;;;5122067;28;20658;-63
2022/07/04 01:46:37;;;;;;;1.60;1.50;;;22.40;89.30;;;;;;5121275;28;20471;-63
2022/07/04 01:49:08;;;;;;;2.13;1.20;;;22.20;89.80;;;;;;5121771;28;20445;-64
2022/07/04 01:51:46;;;;;;;2.47;1.73;;;22.20;90.10;;;;;;5121093;28;20587;-63
2022/07/04 01:54:17;;;;;;;2.33;1.83;;;22.20;90.30;;;;;;5112158;28;20437;-63
2022/07/04 01:56:48;;;;;;;2.13;1.27;;;22.00;90.40;;;;;;5122119;28;20433;-63
2022/07/04 01:59:19;;;;;;;1.57;1.47;;;21.90;90.70;;;;;;5122463;28;20494;-63
2022/07/04 02:01:48;;;;;;;1.87;1.60;;;21.90;90.50;;;;;;5125491;28;20549;-63
2022/07/04 02:04:19;;;;;;;1.93;1.73;;;21.80;90.70;;;;;;5125811;28;20450;-63
2022/07/04 02:06:51;;;;;;;3.83;1.53;;;21.60;90.70;;;;;;5124833;28;20500;-63
2022/07/04 02:09:22;;;;;;;1.90;1.50;;;21.40;91.30;;;;;;5125169;28;20797;-64
2022/07/04 02:14:41;;;;;;;1.20;1.10;;;21.40;92.40;;;;;;5125210;27;20428;-63
2022/07/04 02:17:13;;;;;;;1.67;1.57;;;21.30;92.20;;;;;;5117082;28;20517;-63
2022/07/04 02:19:43;;;;;;;1.97;1.67;;;21.20;92.00;;;;;;5124819;28;20503;-63
2022/07/04 02:22:16;;;;;;;1.60;1.27;;;21.20;92.10;;;;;;5124608;28;20871;-63
2022/07/04 02:24:47;;;;;;;1.40;1.30;;;21.10;92.80;;;;;;5125268;28;20857;-64
2022/07/04 02:27:18;;;;;;;1.30;1.17;;;20.90;92.70;;;;;;5125596;28;20435;-63
2022/07/04 02:29:49;;;;;;;1.60;1.00;;;20.80;93.20;;;;;;5124692;28;20464;-63
2022/07/04 02:32:20;;;;;;;1.47;1.37;;;20.80;93.20;;;;;;5125197;28;20436;-63
2022/07/04 02:34:52;;;;;;;1.70;1.33;;;20.80;93.40;;;;;;5125099;28;20458;-63
2022/07/04 02:37:24;;;;;;;1.70;1.60;;;20.70;93.40;;;;;;5124175;28;20768;-63
2022/07/04 02:39:55;;;;;;;1.20;1.10;;;20.60;94.00;;;;;;5124742;28;20481;-63
2022/07/04 02:42:26;;;;;;;2.57;1.60;;;20.50;94.20;;;;;;5120772;28;20446;-63
2022/07/04 02:44:56;;;;;;;1.47;1.37;;;20.50;94.30;;;;;;5124980;28;20460;-63
2022/07/04 02:47:28;;;;;;;1.83;1.13;;;20.60;94.60;;;;;;5125015;28;20421;-63
2022/07/04 02:50:01;;;;;;;0.87;0.87;;;20.60;94.60;;;;;;5123969;28;20420;-64
2022/07/04 02:52:34;;;;;;;0.83;0.83;;;20.70;94.50;;;;;;5121251;28;20488;-64
2022/07/04 02:55:05;;;;;;;1.00;0.90;;;20.70;94.40;;;;;;5108271;28;20452;-64
2022/07/04 02:57:37;;;;;;;1.60;1.27;;;20.70;94.30;;;;;;5125167;28;20441;-63
2022/07/04 03:00:09;;;;;;;1.13;1.03;;;20.70;94.00;;;;;;5091244;28;20456;-64
2022/07/04 03:02:40;;;;;;;0.80;0.70;;;20.70;94.10;;;;;;5124986;28;20455;-64
2022/07/04 03:05:11;;;;;;;0.70;0.63;;;20.70;94.00;;;;;;5123125;28;20567;-64
2022/07/04 03:07:45;;;;;;;0.93;0.83;;;20.60;93.80;;;;;;5124365;28;20561;-64
2022/07/04 03:10:16;;;;;;;1.20;1.10;;;20.60;93.60;;;;;;5115401;28;20457;-64
2022/07/04 03:12:47;;;;;;;0.90;0.90;;;20.60;93.30;;;;;;5124704;28;20417;-64
2022/07/04 03:15:18;;;;;;;0.97;0.97;;;20.60;93.60;;;;;;5124133;28;20431;-64
2022/07/04 03:17:48;;;;;;;1.10;1.00;;;20.50;93.80;;;;;;5124053;28;20432;-64
2022/07/04 03:20:19;;;;;;;1.10;1.00;;;20.40;94.00;;;;;;5120120;28;20485;-64
2022/07/04 03:22:54;;;;;;;1.00;0.90;;;20.40;93.80;;;;;;5113978;28;20476;-64
2022/07/04 03:25:28;;;;;;;0.70;0.70;;;20.30;94.00;;;;;;5124406;28;20646;-64
2022/07/04 03:27:58;;;;;;;1.07;1.00;;;20.20;94.20;;;;;;5124251;28;20515;-64
2022/07/04 03:30:29;;;;;;;0.67;0.67;;;20.10;94.30;;;;;;5123738;28;20461;-64
2022/07/04 03:33:00;;;;;;;1.30;1.20;;;19.90;94.70;;;;;;5124081;28;20472;-64
2022/07/04 03:35:31;;;;;;;1.07;1.00;;;19.90;95.10;;;;;;5123141;28;20455;-64
2022/07/04 03:38:04;;;;;;;1.03;0.87;;;19.70;95.30;;;;;;5123727;28;20428;-64
2022/07/04 03:40:35;;;;;;;0.67;0.60;;;19.70;95.60;;;;;;5123962;28;20563;-63
2022/07/04 03:43:07;;;;;;;1.03;0.80;;;19.70;95.60;;;;;;5124402;28;20428;-64
2022/07/04 03:45:37;;;;;;;0.90;0.83;;;19.60;96.00;;;;;;5123369;28;20431;-64
2022/07/04 03:48:08;;;;;;;0.67;0.67;;;19.60;96.10;;;;;;5123622;27;20459;-64
2022/07/04 03:50:39;;;;;;;0.83;0.80;;;19.50;96.60;;;;;;5122563;28;20424;-64
2022/07/04 03:53:12;;;;;;;0.60;0.60;;;19.30;96.90;;;;;;5107186;28;20478;-64
2022/07/04 03:55:42;;;;;;;0.80;0.80;;;19.20;96.80;;;;;;5123844;28;20442;-64
2022/07/04 03:58:13;;;;;;;0.70;0.70;;;19.10;97.10;;;;;;5108493;28;20428;-64
2022/07/04 04:00:44;;;;;;;0.60;0.57;;;19.10;97.30;;;;;;5123027;28;20485;-64
2022/07/04 04:06:02;;;;;;;0.57;0.57;;;18.90;97.70;;;;;;5122334;28;20450;-64
2022/07/04 04:08:35;;;;;;;1.03;0.97;;;18.80;97.60;;;;;;5123186;28;20450;-64
2022/07/04 04:11:05;;;;;;;0.60;0.57;;;18.70;97.80;;;;;;5121177;28;20428;-64
2022/07/04 04:13:36;;;;;;;1.00;0.83;;;18.70;98.30;;;;;;5123679;28;20511;-64
2022/07/04 04:16:07;;;;;;;1.10;1.00;;;18.60;98.40;;;;;;5122661;28;20484;-64
2022/07/04 04:18:38;;;;;;;0.80;0.80;;;18.50;98.80;;;;;;5123355;28;20450;-64
2022/07/04 04:21:09;;;;;;;1.03;1.00;;;18.50;99.10;;;;;;5121517;28;20517;-64
2022/07/04 04:23:41;;;;;;;0.80;0.70;;;18.40;99.30;;;;;;5122643;28;20449;-64
2022/07/04 04:26:13;;;;;;;3.43;1.90;;;18.40;99.50;;;;;;5123112;28;20452;-64
2022/07/04 04:28:44;;;;;;;0.63;0.57;;;18.30;99.80;;;;;;5123318;28;20440;-64
2022/07/04 04:31:17;;;;;;;0.47;0.47;;;18.20;99.90;;;;;;5122847;28;20460;-64
2022/07/04 04:33:47;;;;;;;1.07;1.00;;;18.20;99.90;;;;;;5123179;28;20475;-64
2022/07/04 04:36:18;;;;;;;1.30;1.20;;;18.20;99.90;;;;;;5121867;28;20833;-64
2022/07/04 04:38:50;;;;;;;0.93;0.93;;;18.10;99.90;;;;;;5123093;28;20446;-64
2022/07/04 04:41:21;;;;;;;2.10;1.90;;;18.00;99.90;;;;;;5121081;28;20572;-64
2022/07/04 04:43:52;;;;;;;1.97;1.83;;;17.90;99.90;;;;;;5111632;28;20475;-64
2022/07/04 04:46:23;;;;;;;2.57;2.10;;;17.90;99.90;;;;;;5122718;28;20457;-64
2022/07/04 04:48:54;;;;;;;0.80;0.80;;;17.90;99.90;;;;;;5120360;28;20457;-64
2022/07/04 04:51:25;;;;;;;2.33;2.13;;;17.80;99.90;;;;;;5121449;28;20453;-64
2022/07/04 04:53:57;;;;;;;1.40;1.30;;;17.70;99.90;;;;;;5122467;28;20497;-64
2022/07/04 04:56:28;;;;;;;1.33;1.23;;;17.80;99.90;;;;;;5122543;28;20438;-64
2022/07/04 04:58:59;;;;;;;1.23;1.13;;;17.70;99.90;;;;;;5122747;28;20452;-63
2022/07/04 05:01:30;;;;;;;0.80;0.80;;;17.60;99.90;;;;;;5121992;28;20499;-63
2022/07/04 05:04:11;;;;;;;1.53;1.27;;;17.60;99.90;;;;;;5122627;28;20477;-64
2022/07/04 05:06:42;;;;;;;1.43;1.33;;;17.50;99.90;;;;;;5121373;28;20512;-64
2022/07/04 05:09:14;;;;;;;1.60;1.50;;;17.50;99.90;;;;;;5122743;28;20423;-64
2022/07/04 05:11:45;;;;;;;4.97;3.87;;;17.50;99.90;;;;;;5122452;28;20442;-64
2022/07/04 05:14:16;;;;;;;5.47;3.33;;;17.50;99.90;;;;;;5114349;28;20461;-64
2022/07/04 05:16:47;;;;;;;4.00;2.40;;;17.40;99.90;;;;;;5088865;28;20432;-64
2022/07/04 05:19:18;;;;;;;2.60;2.40;;;17.40;99.90;;;;;;5122683;28;20445;-64
2022/07/04 05:21:49;;;;;;;3.40;2.50;;;17.30;99.90;;;;;;5117726;28;20460;-64
2022/07/04 05:24:21;;;;;;;1.93;1.77;;;17.20;99.90;;;;;;5122558;28;20425;-64
2022/07/04 05:26:52;;;;;;;16.20;13.40;;;17.20;99.90;;;;;;5121000;28;20434;-64
2022/07/04 05:29:27;;;;;;;2.83;2.17;;;17.10;99.90;;;;;;5122360;28;20540;-64
2022/07/04 05:31:58;;;;;;;1.77;1.53;;;17.00;99.90;;;;;;5121989;28;20912;-64
2022/07/04 05:34:29;;;;;;;1.60;1.50;;;17.00;99.90;;;;;;5123508;28;20449;-63
2022/07/04 05:37:00;;;;;;;0.93;0.93;;;17.00;99.90;;;;;;5092861;28;20440;-64
2022/07/04 05:39:32;;;;;;;0.73;0.73;;;16.90;99.90;;;;;;5126197;28;20464;-64
2022/07/04 05:42:03;;;;;;;0.80;0.80;;;16.80;99.90;;;;;;5125465;28;20481;-64
2022/07/04 05:44:34;;;;;;;1.00;1.00;;;16.80;99.90;;;;;;5124842;28;20758;-64
2022/07/04 05:47:05;;;;;;;1.10;0.93;;;16.80;99.90;;;;;;5125487;28;20528;-64
2022/07/04 05:49:36;;;;;;;1.10;1.10;;;16.70;99.90;;;;;;5125992;28;20464;-64
2022/07/04 05:52:07;;;;;;;1.60;1.30;;;16.60;99.90;;;;;;5121302;28;20468;-64
2022/07/04 05:54:39;;;;;;;0.87;0.87;;;16.60;99.90;;;;;;5126023;28;20772;-64
2022/07/04 05:57:11;;;;;;;0.63;0.50;;;16.50;99.90;;;;;;5125913;28;20457;-64
2022/07/04 05:59:42;;;;;;;1.17;0.70;;;16.50;99.90;;;;;;5125689;28;20463;-63
2022/07/04 06:02:13;;;;;;;0.50;0.50;;;16.50;99.90;;;;;;5125228;28;20485;-64
2022/07/04 06:04:44;;;;;;;0.73;0.60;;;16.40;99.90;;;;;;5125704;28;20457;-63
2022/07/04 06:07:16;;;;;;;0.60;0.60;;;16.40;99.90;;;;;;5124882;28;20517;-64
2022/07/04 06:09:48;;;;;;;0.77;0.77;;;16.40;99.90;;;;;;5125280;28;20456;-65
2022/07/04 06:12:19;;;;;;;1.87;1.00;;;16.40;99.90;;;;;;5125567;28;20460;-64
2022/07/04 06:14:50;;;;;;;0.80;0.50;;;16.30;99.90;;;;;;5125680;28;20450;-64
2022/07/04 06:17:21;;;;;;;0.90;0.70;;;16.20;99.90;;;;;;5125460;28;20464;-64
2022/07/04 06:19:51;;;;;;;0.63;0.50;;;16.20;99.90;;;;;;5123032;28;20956;-64
2022/07/04 06:22:22;;;;;;;0.80;0.63;;;16.20;99.90;;;;;;5124591;28;20489;-64
2022/07/04 06:24:56;;;;;;;0.80;0.60;;;16.10;99.90;;;;;;5125962;28;20450;-64
2022/07/04 06:27:28;;;;;;;0.70;0.50;;;16.10;99.90;;;;;;5125594;28;20450;-64
2022/07/04 06:30:00;;;;;;;0.90;0.77;;;16.00;99.90;;;;;;5124490;28;20445;-64
2022/07/04 06:32:31;;;;;;;0.80;0.77;;;16.00;99.90;;;;;;5125176;28;20468;-64
2022/07/04 06:37:51;;;;;;;0.73;0.67;;;15.90;99.90;;;;;;5124771;28;20449;-64
2022/07/04 06:40:23;;;;;;;0.70;0.67;;;16.00;99.90;;;;;;5124852;28;20415;-64
2022/07/04 06:42:54;;;;;;;2.07;0.97;;;15.90;99.90;;;;;;5102005;28;20913;-64
2022/07/04 06:45:25;;;;;;;1.13;0.83;;;15.90;99.90;;;;;;5124299;28;20454;-64
2022/07/04 06:47:56;;;;;;;1.40;1.10;;;15.90;99.90;;;;;;5124854;28;20453;-64
2022/07/04 06:50:27;;;;;;;0.83;0.83;;;15.70;99.90;;;;;;5123974;28;20467;-64
2022/07/04 06:53:10;;;;;;;0.93;0.87;;;15.70;99.90;;;;;;5118739;28;20481;-64
2022/07/04 06:55:43;;;;;;;0.80;0.60;;;15.70;99.90;;;;;;5123984;28;20452;-64
2022/07/04 06:58:14;;;;;;;0.70;0.70;;;15.70;99.90;;;;;;5116256;28;20439;-63
2022/07/04 07:00:45;;;;;;;1.00;0.93;;;15.60;99.90;;;;;;5118614;28;20457;-64
2022/07/04 07:03:16;;;;;;;0.90;0.70;;;15.60;99.90;;;;;;5124584;28;20453;-63
2022/07/04 07:05:47;;;;;;;0.67;0.60;;;15.60;99.90;;;;;;5113440;28;20442;-64
2022/07/04 07:08:29;;;;;;;1.30;0.90;;;15.60;99.90;;;;;;5124933;28;20445;-64
2022/07/04 07:11:12;;;;;;;1.30;0.90;;;15.50;99.90;;;;;;5124484;28;20454;-63
2022/07/04 07:13:45;;;;;;;0.73;0.70;;;15.50;99.90;;;;;;5124185;28;20517;-64
2022/07/04 07:16:16;;;;;;;0.83;0.63;;;15.40;99.90;;;;;;5124357;28;20464;-63
2022/07/04 07:18:48;;;;;;;1.37;1.10;;;15.40;99.90;;;;;;5124774;28;20741;-63
2022/07/04 07:21:19;;;;;;;0.73;0.70;;;15.30;99.90;;;;;;5101734;28;20486;-63
2022/07/04 07:23:50;;;;;;;1.03;0.93;;;15.30;99.90;;;;;;5091178;28;20450;-63
2022/07/04 07:26:23;;;;;;;0.70;0.70;;;15.30;99.90;;;;;;5124332;28;20897;-63
2022/07/04 07:28:54;;;;;;;2.33;1.00;;;15.20;99.90;;;;;;5124178;28;20890;-64
2022/07/04 07:31:24;;;;;;;1.87;1.10;;;15.20;99.90;;;;;;5119316;28;20450;-63
2022/07/04 07:33:55;;;;;;;1.27;0.83;;;15.10;99.90;;;;;;5115890;28;20480;-63
2022/07/04 07:36:26;;;;;;;1.10;1.00;;;15.10;99.90;;;;;;5123167;28;20446;-63
2022/07/04 07:38:57;;;;;;;1.33;1.00;;;15.10;99.90;;;;;;5124558;28;20492;-63
2022/07/04 07:41:29;;;;;;;0.73;0.70;;;15.10;99.90;;;;;;5115789;28;20487;-64
2022/07/04 07:44:00;;;;;;;0.80;0.80;;;15.10;99.90;;;;;;5123974;28;20456;-63
2022/07/04 07:46:31;;;;;;;1.60;1.00;;;15.00;99.90;;;;;;5124035;28;20445;-63
2022/07/04 07:49:03;;;;;;;0.87;0.80;;;15.00;99.90;;;;;;5124237;28;20998;-63
2022/07/04 07:51:33;;;;;;;0.60;0.60;;;14.90;99.90;;;;;;5123050;28;22700;-64
2022/07/04 07:54:04;;;;;;;0.80;0.70;;;14.90;99.90;;;;;;5121495;28;20777;-63
2022/07/04 07:56:57;;;;;;;1.03;0.90;;;14.80;99.90;;;;;;5123116;28;20463;-63
2022/07/04 07:59:27;;;;;;;1.13;0.60;;;14.80;99.90;;;;;;5124074;28;20937;-63
2022/07/04 08:01:58;;;;;;;1.03;0.90;;;14.80;99.90;;;;;;5123680;27;20474;-63
2022/07/04 08:04:38;;;;;;;1.23;0.80;;;14.80;99.90;;;;;;5123697;28;20457;-63
2022/07/04 08:07:11;;;;;;;0.80;0.80;;;14.80;99.90;;;;;;5122491;28;20529;-63
2022/07/04 08:09:52;;;;;;;1.23;1.13;;;14.70;99.90;;;;;;5123707;28;20909;-64
2022/07/04 08:12:24;;;;;;;1.43;0.80;;;14.70;99.90;;;;;;5123379;28;20453;-63
2022/07/04 08:14:55;;;;;;;0.90;0.87;;;14.70;99.90;;;;;;5108421;28;20445;-64
2022/07/04 08:17:31;;;;;;;2.40;1.17;;;14.60;99.90;;;;;;5103644;28;20514;-63
2022/07/04 08:20:02;;;;;;;1.20;1.10;;;14.50;99.90;;;;;;5103197;28;20437;-63
2022/07/04 08:22:33;;;;;;;1.77;1.13;;;14.50;99.90;;;;;;5120159;28;20503;-63
2022/07/04 08:25:04;;;;;;;1.60;1.30;;;14.40;99.90;;;;;;5123449;28;20463;-63
2022/07/04 08:27:37;;;;;;;2.20;1.10;;;14.40;99.90;;;;;;5123804;28;20453;-63
2022/07/04 08:30:08;;;;;;;1.17;1.07;;;14.30;99.90;;;;;;5123160;28;20450;-64
2022/07/04 08:32:39;;;;;;;3.63;1.17;;;14.40;99.90;;;;;;5123405;28;20448;-63
2022/07/04 08:35:11;;;;;;;1.20;1.00;;;14.30;99.90;;;;;;5091886;28;20450;-63
2022/07/04 08:37:42;;;;;;;1.87;1.07;;;14.30;99.90;;;;;;5123285;28;20469;-64
2022/07/04 08:40:13;;;;;;;0.90;0.80;;;14.30;99.90;;;;;;5123133;28;20446;-64
2022/07/04 08:42:46;;;;;;;1.03;1.03;;;14.30;99.90;;;;;;5123093;28;20507;-63
2022/07/04 08:45:18;;;;;;;0.93;0.67;;;14.20;99.90;;;;;;5122727;28;20464;-64
2022/07/04 08:47:51;;;;;;;1.30;1.20;;;14.20;99.90;;;;;;5123872;28;20463;-64
2022/07/04 08:50:28;;;;;;;1.73;1.20;;;14.20;99.90;;;;;;5122434;28;20446;-63
2022/07/04 08:53:01;;;;;;;1.07;0.70;;;14.10;99.90;;;;;;5122378;28;20485;-63
2022/07/04 08:58:29;;;;;;;1.07;0.93;;;14.00;99.90;;;;;;5123016;28;20945;-64
2022/07/04 09:01:01;;;;;;;0.93;0.87;;;14.00;99.90;;;;;;5122273;28;20457;-64
2022/07/04 09:03:33;;;;;;;2.73;1.17;;;14.00;99.90;;;;;;5122637;28;20473;-64
2022/07/04 09:06:04;;;;;;;1.60;1.10;;;14.00;99.90;;;;;;5121670;28;20532;-63
2022/07/04 09:08:35;;;;;;;1.27;1.00;;;14.00;99.90;;;;;;5124331;28;20464;-63
2022/07/04 09:11:06;;;;;;;1.50;0.97;;;14.00;99.90;;;;;;5127177;28;20457;-63
2022/07/04 09:13:39;;;;;;;1.20;1.07;;;13.90;99.90;;;;;;5116660;28;20948;-63
2022/07/04 09:16:10;;;;;;;1.37;1.27;;;13.90;99.90;;;;;;5127037;28;20788;-63
2022/07/04 09:18:41;;;;;;;1.00;0.73;;;13.80;99.90;;;;;;5126620;27;20820;-64
2022/07/04 09:21:12;;;;;;;1.23;1.10;;;13.90;99.90;;;;;;5126272;28;20452;-63
2022/07/04 09:23:44;;;;;;;1.10;1.00;;;13.80;99.90;;;;;;5126987;28;20861;-63
2022/07/04 09:26:17;;;;;;;1.17;1.07;;;13.70;99.90;;;;;;5126509;28;20511;-63
2022/07/04 09:28:54;;;;;;;0.87;0.80;;;13.70;99.90;;;;;;5126765;28;20450;-64
2022/07/04 09:31:26;;;;;;;1.63;1.10;;;13.70;99.90;;;;;;5116234;28;20458;-63
2022/07/04 09:33:58;;;;;;;1.03;0.90;;;13.60;99.90;;;;;;5124707;28;20786;-63
2022/07/04 09:36:30;;;;;;;1.13;0.90;;;13.60;99.90;;;;;;5125500;28;20954;-63
2022/07/04 09:39:12;;;;;;;1.33;1.10;;;13.60;99.90;;;;;;5126672;28;20455;-64
2022/07/04 09:41:56;;;;;;;1.20;1.10;;;13.50;99.90;;;;;;5126233;28;20556;-64
2022/07/04 09:44:30;;;;;;;1.03;0.73;;;13.50;99.90;;;;;;5126790;28;20471;-63
2022/07/04 09:47:01;;;;;;;1.40;1.30;;;13.50;99.90;;;;;;5125766;28;20460;-64
2022/07/04 09:49:31;;;;;;;1.30;0.90;;;13.50;99.90;;;;;;5126229;28;20790;-63
2022/07/04 09:52:03;;;;;;;1.00;0.87;;;13.40;99.90;;;;;;5123714;28;20618;-64
2022/07/04 09:54:34;;;;;;;1.20;1.10;;;13.30;99.90;;;;;;5126933;28;20438;-63
2022/07/04 09:57:05;;;;;;;1.63;1.30;;;13.30;99.90;;;;;;5125819;28;20442;-63
2022/07/04 09:59:38;;;;;;;0.80;0.77;;;13.30;99.90;;;;;;5126020;28;20477;-63
2022/07/04 10:02:11;;;;;;;1.13;1.00;;;13.20;99.90;;;;;;5125033;28;20974;-64
2022/07/04 10:04:46;;;;;;;0.90;0.90;;;13.20;99.90;;;;;;5125387;28;20456;-63
2022/07/04 10:07:35;;;;;;;1.10;0.80;;;13.20;99.90;;;;;;5119029;28;20508;-64
2022/07/04 10:10:29;;;;;;;1.30;1.20;;;13.20;99.90;;;;;;5125852;28;21094;-63
2022/07/04 10:13:02;;;;;;;2.20;1.67;;;13.10;99.90;;;;;;5126058;28;20773;-63
2022/07/04 10:15:37;;;;;;;1.20;0.90;;;13.10;99.90;;;;;;5125176;28;20457;-64
2022/07/04 10:18:08;;;;;;;1.23;1.10;;;13.00;99.90;;;;;;5125501;28;20517;-63
2022/07/04 10:20:39;;;;;;;1.67;1.20;;;13.10;99.90;;;;;;5121878;28;20453;-63
2022/07/04 10:23:10;;;;;;;1.37;0.80;;;13.10;99.90;;;;;;5125901;28;20548;-63
2022/07/04 10:25:48;;;;;;;1.10;1.00;;;13.10;99.90;;;;;;5125420;27;20483;-63
2022/07/04 10:28:20;;;;;;;1.20;1.10;;;13.00;99.90;;;;;;5125580;28;20437;-64
2022/07/04 10:30:53;;;;;;;1.40;1.30;;;13.00;99.90;;;;;;5123678;28;20446;-63
2022/07/04 10:33:27;;;;;;;1.80;0.80;;;12.90;99.90;;;;;;5125596;28;20449;-63
2022/07/04 10:36:01;;;;;;;0.70;0.70;;;13.00;99.90;;;;;;5123933;28;20467;-63
2022/07/04 10:38:34;;;;;;;1.00;0.93;;;12.90;99.90;;;;;;5125292;28;20441;-63
2022/07/04 10:41:06;;;;;;;1.10;1.00;;;12.90;99.90;;;;;;5124675;28;20476;-63
2022/07/04 10:43:55;;;;;;;1.10;1.00;;;12.90;99.90;;;;;;5125149;28;20492;-64
2022/07/04 10:46:35;;;;;;;0.93;0.93;;;12.90;99.90;;;;;;5114315;28;20450;-63
2022/07/04 10:49:08;;;;;;;1.50;1.27;;;12.90;99.90;;;;;;5124961;28;20469;-63
2022/07/04 10:51:45;;;;;;;1.33;1.23;;;12.90;99.90;;;;;;5123796;28;20450;-63
2022/07/04 10:54:18;;;;;;;1.20;1.10;;;12.90;99.90;;;;;;5104614;28;20450;-63
2022/07/04 10:56:54;;;;;;;1.20;0.80;;;12.80;99.90;;;;;;5124557;28;20935;-63
2022/07/04 10:59:26;;;;;;;1.23;0.80;;;12.80;99.90;;;;;;5123972;28;20465;-63
2022/07/04 11:02:26;;;;;;;1.33;1.20;;;12.80;99.90;;;;;;5124762;28;20440;-63
2022/07/04 11:05:00;;;;;;;1.43;1.23;;;12.80;99.90;;;;;;5124352;28;20532;-64
2022/07/04 11:08:00;;;;;;;1.20;1.07;;;12.70;99.90;;;;;;5124732;28;20473;-63
2022/07/04 11:10:35;;;;;;;1.30;0.83;;;12.70;99.90;;;;;;5117147;28;20437;-63
2022/07/04 11:13:18;;;;;;;1.03;0.90;;;12.70;99.90;;;;;;5124441;28;20555;-63
2022/07/04 11:16:05;;;;;;;1.80;1.70;;;12.80;99.90;;;;;;5124223;28;20533;-63
2022/07/04 11:18:45;;;;;;;1.23;0.90;;;12.90;99.90;;;;;;5124163;28;20454;-63
2022/07/04 11:21:21;;;;;;;1.10;1.00;;;12.90;99.90;;;;;;5116226;28;20450;-63
2022/07/04 11:23:55;;;;;;;1.07;0.83;;;13.00;99.90;;;;;;5124584;28;20485;-64
2022/07/04 11:26:27;;;;;;;1.20;1.10;;;13.00;99.90;;;;;;5124325;28;20445;-63
2022/07/04 11:28:58;;;;;;;1.30;1.10;;;13.00;99.90;;;;;;5124107;28;20553;-63
2022/07/04 11:31:42;;;;;;;2.20;1.17;;;13.00;99.90;;;;;;5102281;28;20534;-63
2022/07/04 11:34:15;;;;;;;1.30;1.10;;;13.00;99.90;;;;;;5124509;28;20747;-63
2022/07/04 11:36:47;;;;;;;1.37;1.27;;;13.10;99.90;;;;;;5123234;28;20470;-63
2022/07/04 11:39:20;;;;;;;1.20;1.10;;;13.20;99.90;;;;;;5123517;28;20452;-63
2022/07/04 11:47:36;;;;;;;1.50;1.23;;;13.10;99.90;;;;;;5123668;28;20544;-64
2022/07/04 11:50:11;;;;;;;1.73;1.10;;;13.10;99.90;;;;;;5111970;28;20445;-63
2022/07/04 11:52:44;;;;;;;1.40;1.20;;;13.20;99.90;;;;;;5115495;28;20488;-63
2022/07/04 11:55:35;;;;;;;1.57;1.07;;;13.20;99.90;;;;;;5120277;28;20475;-63
2022/07/04 11:58:05;;;;;;;1.60;1.50;;;13.10;99.90;;;;;;5123688;28;20446;-63
2022/07/04 12:00:43;;;;;;;1.30;1.07;;;13.20;99.90;;;;;;5123610;28;20485;-63
2022/07/04 12:03:13;;;;;;;1.60;1.37;;;13.20;99.90;;;;;;5123740;28;20460;-63
2022/07/04 12:05:46;;;;;;;1.27;1.17;;;13.30;99.90;;;;;;5122523;28;20494;-65
2022/07/04 12:08:17;;;;;;;1.40;1.10;;;13.30;99.90;;;;;;5123491;28;20564;-63
2022/07/04 12:10:55;;;;;;;1.40;1.30;;;13.30;99.90;;;;;;5122977;28;20473;-63
2022/07/04 12:13:26;;;;;;;1.07;1.07;;;13.40;99.90;;;;;;5123381;28;20472;-63
2022/07/04 12:15:57;;;;;;;0.80;0.80;;;13.40;99.90;;;;;;5123067;28;20547;-63
2022/07/04 12:18:31;;;;;;;1.10;1.10;;;13.40;99.90;;;;;;5122930;28;20476;-63
2022/07/04 12:21:18;;;;;;;3.40;1.20;;;13.40;99.90;;;;;;5120967;28;20460;-64
2022/07/04 12:23:54;;;;;;;2.07;1.20;;;13.40;99.90;;;;;;5123754;28;20499;-63
2022/07/04 12:26:49;;;;;;;1.00;0.90;;;13.40;99.90;;;;;;5123446;28;20437;-63
2022/07/04 12:29:24;;;;;;;1.20;0.83;;;13.30;99.90;;;;;;5113161;28;20453;-63
2022/07/04 12:32:01;;;;;;;0.80;0.80;;;13.30;99.90;;;;;;5123097;28;20449;-63
2022/07/04 12:34:32;;;;;;;0.93;0.80;;;13.20;99.90;;;;;;5123206;28;20450;-63
2022/07/04 12:37:10;;;;;;;1.70;1.50;;;13.10;99.90;;;;;;5122011;28;20456;-63
2022/07/04 12:39:43;;;;;;;1.90;1.60;;;13.10;99.90;;;;;;5122973;28;20442;-63
2022/07/04 12:42:15;;;;;;;1.53;1.30;;;13.00;99.90;;;;;;5122671;28;20461;-63
2022/07/04 12:44:49;;;;;;;1.27;1.10;;;13.00;99.90;;;;;;5123242;28;20475;-63
2022/07/04 12:47:20;;;;;;;1.57;1.10;;;12.90;99.90;;;;;;5113834;28;20449;-63
2022/07/04 12:50:11;;;;;;;1.53;1.40;;;12.90;99.90;;;;;;5121361;28;20446;-63
2022/07/04 12:52:43;;;;;;;1.60;1.50;;;12.90;99.90;;;;;;5114524;28;20489;-63
2022/07/04 12:55:17;;;;;;;2.33;1.53;;;12.80;99.90;;;;;;5122114;28;20471;-63
2022/07/04 12:57:48;;;;;;;1.77;1.50;;;12.80;99.90;;;;;;5123205;28;20457;-63
2022/07/04 13:00:19;;;;;;;2.17;1.77;;;12.90;99.90;;;;;;5122160;28;20967;-63
2022/07/04 13:03:07;;;;;;;1.53;1.27;;;12.80;99.90;;;;;;5084109;28;20443;-63
2022/07/04 13:05:39;;;;;;;1.40;1.30;;;12.80;99.90;;;;;;5121778;28;20481;-63
2022/07/04 13:08:11;;;;;;;1.30;1.20;;;12.80;99.90;;;;;;5123076;28;20453;-63
2022/07/04 13:10:42;;;;;;;2.00;1.13;;;12.80;99.90;;;;;;5122214;28;20450;-63
2022/07/04 13:13:13;;;;;;;2.30;1.40;;;12.80;99.90;;;;;;5122610;28;20476;-64
2022/07/04 13:15:44;;;;;;;2.57;1.60;;;12.90;99.90;;;;;;5122626;28;20445;-64
2022/07/04 13:18:14;;;;;;;1.77;0.97;;;13.00;99.90;;;;;;5123102;28;20453;-64
2022/07/04 13:20:45;;;;;;;2.10;1.87;;;13.00;99.90;;;;;;5121095;28;20449;-63
2022/07/04 13:23:18;;;;;;;1.40;1.20;;;13.00;99.90;;;;;;5122515;28;20463;-63
2022/07/04 13:25:49;;;;;;;1.90;1.80;;;13.00;99.90;;;;;;5121866;28;20546;-63
2022/07/04 13:28:19;;;;;;;1.73;1.57;;;13.10;99.90;;;;;;5122462;28;20453;-63
2022/07/04 13:30:50;;;;;;;2.10;1.57;;;13.20;99.90;;;;;;5111380;28;20509;-63
2022/07/04 13:33:21;;;;;;;1.93;1.60;;;13.20;99.90;;;;;;5116660;28;20966;-63